Time;durP1;ratioP1;P1;durP2;ratioP2;P2;SDS_P1;SDS_P2;PMS_P1;PMS_P2;Temp;Humidity;BMP_temperature;BMP_pressure;BME280_temperature;BME280_humidity;BME280_pressure;Samples;Min_cycle;Max_cycle;Signal;HPM_P1;HPM_P2
2021/07/06 00:00:55;;;;;;;3.47;3.17;;;15.60;99.90;;;;;;5055113;28;20500;-75
2021/07/06 00:03:22;;;;;;;5.20;3.20;;;15.50;99.90;;;;;;5049231;28;20456;-75
2021/07/06 00:05:49;;;;;;;9.33;3.30;;;15.40;99.90;;;;;;5031479;28;20485;-74
2021/07/06 00:08:17;;;;;;;3.03;2.83;;;15.40;99.90;;;;;;5047749;28;20540;-74
2021/07/06 00:10:44;;;;;;;3.20;3.00;;;15.40;99.90;;;;;;5045703;28;20472;-74
2021/07/06 00:13:11;;;;;;;3.27;3.00;;;15.40;99.90;;;;;;5049037;28;20554;-74
2021/07/06 00:15:38;;;;;;;3.90;3.00;;;15.40;99.90;;;;;;5044759;28;20449;-74
2021/07/06 00:18:05;;;;;;;3.27;2.97;;;15.40;99.90;;;;;;5048351;28;20912;-74
2021/07/06 00:20:32;;;;;;;3.70;3.07;;;15.40;99.90;;;;;;5050748;28;21292;-74
2021/07/06 00:23:02;;;;;;;3.70;3.30;;;15.30;99.90;;;;;;5052939;28;20477;-74
2021/07/06 00:25:31;;;;;;;3.57;3.37;;;15.30;99.90;;;;;;5041705;28;20544;-74
2021/07/06 00:27:58;;;;;;;3.67;3.37;;;15.30;99.90;;;;;;5051912;28;20530;-75
2021/07/06 00:30:25;;;;;;;3.40;3.10;;;15.30;99.90;;;;;;5049698;28;20445;-74
2021/07/06 00:32:53;;;;;;;3.63;3.07;;;15.30;99.90;;;;;;5046567;28;20699;-74
2021/07/06 00:35:20;;;;;;;3.27;3.07;;;15.30;99.90;;;;;;5048336;28;20556;-75
2021/07/06 00:37:47;;;;;;;3.90;3.10;;;15.30;99.90;;;;;;5053211;28;20548;-74
2021/07/06 00:40:15;;;;;;;5.17;3.60;;;15.30;99.90;;;;;;5039716;28;20466;-73
2021/07/06 00:42:48;;;;;;;3.50;3.20;;;15.20;99.90;;;;;;5038200;28;20489;-73
2021/07/06 00:45:16;;;;;;;3.47;3.17;;;15.20;99.90;;;;;;5047398;28;20545;-74
2021/07/06 00:47:44;;;;;;;6.43;3.50;;;15.20;99.90;;;;;;5050504;28;20448;-74
2021/07/06 00:50:14;;;;;;;3.83;3.53;;;15.20;99.90;;;;;;5050606;28;20539;-74
2021/07/06 00:52:41;;;;;;;4.70;3.43;;;15.10;99.90;;;;;;5043643;28;20454;-74
2021/07/06 00:55:09;;;;;;;3.53;3.23;;;15.20;99.90;;;;;;5052959;28;20463;-74
2021/07/06 00:57:37;;;;;;;3.40;3.10;;;15.10;99.90;;;;;;5049965;28;20468;-74
2021/07/06 01:00:08;;;;;;;3.80;3.50;;;15.10;99.90;;;;;;5053749;28;20685;-74
2021/07/06 01:02:35;;;;;;;4.10;3.70;;;15.10;99.90;;;;;;5038583;28;20463;-74
2021/07/06 01:05:04;;;;;;;3.80;3.50;;;15.10;99.90;;;;;;5053580;28;20466;-74
2021/07/06 01:07:31;;;;;;;3.70;3.33;;;15.20;99.90;;;;;;5050609;28;20459;-74
2021/07/06 01:09:58;;;;;;;4.53;3.70;;;15.20;99.90;;;;;;5048393;28;20456;-74
2021/07/06 01:12:25;;;;;;;4.13;3.73;;;15.20;99.90;;;;;;5046099;28;21332;-74
2021/07/06 01:14:52;;;;;;;3.30;3.10;;;15.20;99.90;;;;;;5047187;28;20625;-74
2021/07/06 01:17:27;;;;;;;3.30;3.10;;;15.20;99.90;;;;;;5043643;28;20459;-74
2021/07/06 01:19:54;;;;;;;6.83;3.50;;;15.20;99.90;;;;;;5040900;28;21181;-74
2021/07/06 01:22:28;;;;;;;3.80;3.40;;;15.10;99.90;;;;;;5046446;28;20843;-74
2021/07/06 01:24:56;;;;;;;3.50;3.30;;;15.10;99.90;;;;;;5049439;28;20499;-74
2021/07/06 01:27:23;;;;;;;4.70;3.60;;;15.10;99.90;;;;;;5048396;28;20548;-74
2021/07/06 01:29:50;;;;;;;3.33;3.03;;;15.10;99.90;;;;;;5032103;28;20466;-74
2021/07/06 01:32:17;;;;;;;5.70;3.50;;;15.10;99.90;;;;;;5027487;28;20921;-74
2021/07/06 01:34:44;;;;;;;4.80;3.70;;;15.10;99.90;;;;;;5030311;28;20592;-74
2021/07/06 01:37:11;;;;;;;3.33;3.10;;;15.10;99.90;;;;;;5031262;28;20475;-74
2021/07/06 01:39:39;;;;;;;4.40;3.40;;;15.00;99.90;;;;;;5039553;28;20460;-74
2021/07/06 01:42:06;;;;;;;3.60;3.37;;;15.10;99.90;;;;;;5051751;28;20975;-74
2021/07/06 01:44:33;;;;;;;4.57;3.60;;;15.10;99.90;;;;;;5050858;28;20538;-74
2021/07/06 01:47:00;;;;;;;3.37;3.07;;;15.10;99.90;;;;;;5048476;28;20453;-74
2021/07/06 01:49:27;;;;;;;3.40;2.73;;;15.10;99.90;;;;;;5042317;28;20543;-74
2021/07/06 01:51:53;;;;;;;3.97;3.67;;;15.10;99.90;;;;;;5049746;28;20460;-74
2021/07/06 01:54:20;;;;;;;4.43;3.57;;;15.10;99.90;;;;;;5049885;28;20511;-74
2021/07/06 01:56:49;;;;;;;3.63;3.43;;;15.10;99.90;;;;;;5044339;28;20548;-74
2021/07/06 01:59:16;;;;;;;3.63;3.23;;;15.10;99.90;;;;;;5040826;28;20458;-74
2021/07/06 02:01:44;;;;;;;3.60;3.40;;;15.10;99.90;;;;;;5044664;28;20493;-74
2021/07/06 02:04:13;;;;;;;4.77;3.67;;;15.00;99.90;;;;;;5044751;28;21207;-74
2021/07/06 02:06:40;;;;;;;3.80;3.50;;;15.00;99.90;;;;;;5047943;28;20444;-74
2021/07/06 02:09:07;;;;;;;4.70;3.37;;;15.00;99.90;;;;;;5032462;28;20528;-74
2021/07/06 02:11:34;;;;;;;3.63;3.43;;;15.00;99.90;;;;;;5025003;28;21093;-74
2021/07/06 02:14:03;;;;;;;4.17;3.50;;;14.90;99.90;;;;;;5030664;28;20473;-74
2021/07/06 02:16:31;;;;;;;4.10;3.60;;;14.90;99.90;;;;;;5040387;28;20484;-74
2021/07/06 02:18:58;;;;;;;4.57;3.70;;;14.90;99.90;;;;;;5043487;28;20457;-74
2021/07/06 02:21:24;;;;;;;3.60;3.40;;;14.80;99.90;;;;;;5045193;28;20579;-74
2021/07/06 02:23:51;;;;;;;4.47;4.07;;;14.80;99.90;;;;;;5043698;28;20887;-74
2021/07/06 02:26:18;;;;;;;4.07;3.67;;;14.80;99.90;;;;;;5026226;28;21310;-74
2021/07/06 02:28:45;;;;;;;4.23;3.50;;;14.80;99.90;;;;;;5027063;28;20456;-74
2021/07/06 02:31:13;;;;;;;3.83;3.53;;;14.80;99.90;;;;;;5029826;28;20515;-73
2021/07/06 02:33:40;;;;;;;3.83;3.53;;;14.80;99.90;;;;;;5043436;28;20540;-74
2021/07/06 02:36:08;;;;;;;3.70;3.40;;;14.80;99.90;;;;;;5038918;28;20553;-74
2021/07/06 02:38:36;;;;;;;4.77;3.77;;;14.80;99.90;;;;;;5051366;28;20467;-74
2021/07/06 02:41:03;;;;;;;4.00;3.70;;;14.80;99.90;;;;;;5042385;28;20550;-74
2021/07/06 02:43:30;;;;;;;4.30;4.00;;;14.80;99.90;;;;;;5046152;28;20460;-74
2021/07/06 02:45:56;;;;;;;3.10;2.90;;;14.80;99.90;;;;;;5036197;28;21399;-74
2021/07/06 02:48:25;;;;;;;4.77;4.37;;;14.70;99.90;;;;;;5053119;28;20984;-75
2021/07/06 02:50:52;;;;;;;5.07;3.63;;;14.70;99.90;;;;;;5046883;28;20445;-74
2021/07/06 02:53:18;;;;;;;4.20;3.90;;;14.70;99.90;;;;;;5041255;28;20471;-74
2021/07/06 02:55:45;;;;;;;6.63;4.00;;;14.70;99.90;;;;;;5047630;28;20469;-74
2021/07/06 02:58:12;;;;;;;4.60;4.30;;;14.70;99.90;;;;;;5049732;28;20547;-74
2021/07/06 03:00:39;;;;;;;4.10;3.80;;;14.70;99.90;;;;;;5045621;28;20505;-74
2021/07/06 03:03:09;;;;;;;4.30;3.90;;;14.60;99.90;;;;;;5041702;28;20468;-74
2021/07/06 03:05:37;;;;;;;4.17;3.77;;;14.60;99.90;;;;;;5049243;28;20454;-74
2021/07/06 03:08:05;;;;;;;4.87;4.47;;;14.70;99.90;;;;;;5042678;28;20540;-74
2021/07/06 03:10:33;;;;;;;3.97;3.67;;;14.60;99.90;;;;;;5045815;28;20447;-74
2021/07/06 03:13:00;;;;;;;4.73;4.27;;;14.60;99.90;;;;;;5039781;28;20503;-74
2021/07/06 03:15:31;;;;;;;4.67;4.37;;;14.50;99.90;;;;;;5046512;28;21002;-74
2021/07/06 03:17:58;;;;;;;4.90;4.50;;;14.50;99.90;;;;;;5047147;28;20452;-75
2021/07/06 03:20:27;;;;;;;4.67;4.10;;;14.50;99.90;;;;;;5048245;28;20485;-74
2021/07/06 03:22:55;;;;;;;3.90;3.60;;;14.50;99.90;;;;;;5043621;28;21119;-75
2021/07/06 03:25:25;;;;;;;5.20;4.43;;;14.50;99.90;;;;;;5050874;28;20859;-74
2021/07/06 03:27:52;;;;;;;4.70;3.80;;;14.50;99.90;;;;;;5051304;28;20457;-74
2021/07/06 03:30:21;;;;;;;4.20;3.90;;;14.50;99.90;;;;;;5043794;28;20940;-74
2021/07/06 03:32:49;;;;;;;5.07;4.60;;;14.50;99.90;;;;;;5028652;28;20545;-75
2021/07/06 03:35:17;;;;;;;5.00;4.60;;;14.50;99.90;;;;;;5031549;28;20531;-75
2021/07/06 03:37:44;;;;;;;6.10;4.53;;;14.50;99.90;;;;;;5038728;28;20455;-75
2021/07/06 03:40:13;;;;;;;4.77;4.37;;;14.60;99.90;;;;;;5047608;28;20452;-74
2021/07/06 03:42:40;;;;;;;7.10;4.77;;;14.60;99.90;;;;;;5060514;28;20497;-74
2021/07/06 03:45:10;;;;;;;4.00;3.70;;;14.70;99.90;;;;;;5048170;28;20548;-74
2021/07/06 03:47:37;;;;;;;5.00;4.50;;;14.70;99.90;;;;;;5052727;28;20536;-74
2021/07/06 03:50:06;;;;;;;8.10;4.77;;;14.70;99.90;;;;;;5038431;28;20549;-74
2021/07/06 03:52:33;;;;;;;4.20;3.90;;;14.70;99.90;;;;;;5053278;28;20464;-74
2021/07/06 03:55:00;;;;;;;4.33;3.97;;;14.70;99.90;;;;;;5048268;28;20569;-74
2021/07/06 03:57:32;;;;;;;4.90;4.43;;;14.80;99.90;;;;;;5046694;28;20450;-74
2021/07/06 04:00:00;;;;;;;5.87;4.57;;;14.80;99.90;;;;;;5047061;28;20466;-74
2021/07/06 04:02:27;;;;;;;4.77;4.23;;;14.80;99.90;;;;;;5053897;28;21060;-74
2021/07/06 04:04:54;;;;;;;4.60;4.20;;;14.80;99.90;;;;;;5035324;28;20552;-74
2021/07/06 04:07:21;;;;;;;4.30;3.90;;;14.90;99.90;;;;;;5033416;28;20973;-75
2021/07/06 04:09:48;;;;;;;4.70;4.37;;;14.90;99.90;;;;;;5033168;28;20497;-75
2021/07/06 04:12:15;;;;;;;4.00;3.70;;;15.10;99.90;;;;;;5048332;28;20477;-75
2021/07/06 04:14:43;;;;;;;3.40;3.10;;;15.70;99.50;;;;;;5046099;28;20450;-75
2021/07/06 04:17:10;;;;;;;3.10;2.90;;;16.30;93.80;;;;;;5051229;28;20489;-74
2021/07/06 04:19:37;;;;;;;3.17;2.87;;;16.90;91.00;;;;;;5046613;28;20552;-74
2021/07/06 04:22:05;;;;;;;2.90;2.70;;;17.60;88.30;;;;;;5050577;28;20990;-74
2021/07/06 04:24:31;;;;;;;3.10;2.70;;;18.20;85.70;;;;;;5029179;28;20486;-76
2021/07/06 04:26:59;;;;;;;5.07;2.23;;;18.50;83.20;;;;;;5033467;28;20541;-75
2021/07/06 04:29:26;;;;;;;2.80;2.60;;;18.90;80.70;;;;;;5030439;28;20467;-74
2021/07/06 04:31:54;;;;;;;2.57;2.37;;;19.20;79.60;;;;;;5028821;28;20476;-75
2021/07/06 04:34:22;;;;;;;2.63;2.10;;;19.50;77.40;;;;;;5033879;28;20449;-75
2021/07/06 04:36:49;;;;;;;2.43;2.07;;;19.80;75.50;;;;;;5032579;28;20780;-76
2021/07/06 04:39:16;;;;;;;5.57;1.93;;;20.10;74.30;;;;;;5042400;28;20451;-76
2021/07/06 04:41:44;;;;;;;4.57;2.30;;;20.40;73.40;;;;;;5053070;28;20923;-76
2021/07/06 04:44:11;;;;;;;1.97;1.87;;;20.70;72.50;;;;;;5050116;28;21132;-75
2021/07/06 04:46:38;;;;;;;2.90;2.23;;;20.90;71.60;;;;;;5046413;28;20948;-75
2021/07/06 04:49:06;;;;;;;2.10;2.00;;;21.00;70.30;;;;;;5047093;28;20457;-75
2021/07/06 04:51:34;;;;;;;2.53;2.13;;;20.90;70.80;;;;;;5046385;28;20491;-76
2021/07/06 04:54:01;;;;;;;3.50;1.80;;;21.00;69.70;;;;;;5045037;28;20801;-76
2021/07/06 04:56:28;;;;;;;2.40;1.80;;;21.00;69.60;;;;;;5048476;28;20474;-76
2021/07/06 04:58:55;;;;;;;3.70;2.00;;;21.30;69.40;;;;;;5050549;28;20454;-75
2021/07/06 05:01:23;;;;;;;2.27;1.70;;;21.40;69.10;;;;;;5051063;28;21003;-76
2021/07/06 05:03:50;;;;;;;2.57;1.73;;;21.50;68.50;;;;;;5042638;28;20558;-75
2021/07/06 05:06:19;;;;;;;2.73;2.00;;;21.60;68.10;;;;;;5048492;28;20462;-76
2021/07/06 05:08:47;;;;;;;4.50;1.80;;;21.70;67.80;;;;;;5049165;28;20452;-75
2021/07/06 05:11:14;;;;;;;2.90;1.80;;;22.00;67.60;;;;;;5051092;28;20593;-75
2021/07/06 05:13:41;;;;;;;2.97;2.30;;;22.10;67.20;;;;;;5043789;28;20848;-75
2021/07/06 05:16:08;;;;;;;2.23;2.03;;;22.10;66.80;;;;;;5047425;28;20512;-75
2021/07/06 05:18:35;;;;;;;2.27;2.07;;;22.20;66.80;;;;;;5043890;28;20487;-76
2021/07/06 05:21:02;;;;;;;1.70;1.60;;;22.60;66.30;;;;;;5042909;28;20453;-75
2021/07/06 05:23:30;;;;;;;1.90;1.73;;;22.90;65.80;;;;;;5041389;28;20593;-75
2021/07/06 05:25:57;;;;;;;2.17;2.00;;;23.00;65.20;;;;;;5055770;28;20777;-76
2021/07/06 05:28:24;;;;;;;2.00;1.80;;;23.10;65.00;;;;;;5045168;28;20467;-75
2021/07/06 05:30:51;;;;;;;2.40;1.90;;;22.80;64.60;;;;;;5049567;28;21201;-75
2021/07/06 05:33:18;;;;;;;4.80;3.50;;;22.80;65.00;;;;;;5040700;28;20598;-75
2021/07/06 05:35:45;;;;;;;1.87;1.60;;;22.70;65.10;;;;;;5048381;28;20489;-77
2021/07/06 05:38:12;;;;;;;1.80;1.70;;;22.90;65.50;;;;;;5045329;28;20465;-77
2021/07/06 05:40:41;;;;;;;1.90;1.80;;;23.00;64.90;;;;;;5051574;28;20855;-77
2021/07/06 05:43:08;;;;;;;4.17;1.80;;;22.90;64.30;;;;;;5045496;28;20721;-77
2021/07/06 05:45:35;;;;;;;7.77;2.10;;;22.80;65.10;;;;;;5053591;28;20719;-75
2021/07/06 05:48:03;;;;;;;2.50;2.27;;;22.80;65.40;;;;;;5051523;28;20465;-75
2021/07/06 05:50:30;;;;;;;3.17;1.70;;;22.90;64.80;;;;;;5056818;28;20456;-77
2021/07/06 05:52:57;;;;;;;2.23;1.60;;;22.60;64.80;;;;;;5062289;28;20924;-76
2021/07/06 05:55:24;;;;;;;2.80;1.53;;;22.60;64.60;;;;;;5074108;28;20489;-77
2021/07/06 05:57:52;;;;;;;2.00;1.73;;;22.20;65.10;;;;;;5065164;28;20476;-74
2021/07/06 06:00:20;;;;;;;1.73;1.63;;;22.40;65.50;;;;;;5060966;28;20454;-74
2021/07/06 06:02:47;;;;;;;2.73;1.63;;;22.40;65.20;;;;;;5066662;28;20466;-74
2021/07/06 06:05:14;;;;;;;3.10;1.93;;;22.40;65.30;;;;;;5058979;28;20472;-75
2021/07/06 06:07:42;;;;;;;2.47;1.77;;;22.40;65.30;;;;;;5060704;28;20449;-76
2021/07/06 06:10:11;;;;;;;2.33;1.80;;;22.40;65.10;;;;;;5034357;28;20474;-76
2021/07/06 06:13:18;;;;;;;2.20;2.00;;;22.40;65.30;;;;;;5084896;27;20348;-75
2021/07/06 06:15:45;;;;;;;2.80;1.37;;;22.50;65.00;;;;;;5075299;28;20587;-77
2021/07/06 06:18:12;;;;;;;2.30;1.93;;;22.60;65.30;;;;;;5083623;28;20485;-75
2021/07/06 06:20:39;;;;;;;2.50;2.03;;;22.80;65.10;;;;;;5079905;27;20542;-75
2021/07/06 06:23:06;;;;;;;1.83;1.70;;;23.10;65.10;;;;;;5079778;28;21098;-75
2021/07/06 06:25:33;;;;;;;3.27;1.80;;;23.10;64.50;;;;;;5079728;28;20459;-75
2021/07/06 06:28:00;;;;;;;2.07;1.87;;;22.70;64.50;;;;;;5078975;28;20519;-75
2021/07/06 06:30:28;;;;;;;3.07;1.40;;;22.60;65.00;;;;;;5075172;28;20560;-77
2021/07/06 06:32:56;;;;;;;6.20;2.20;;;22.60;65.40;;;;;;5081122;28;20509;-74
2021/07/06 06:35:23;;;;;;;1.80;1.70;;;22.60;65.00;;;;;;5080100;28;20455;-73
2021/07/06 06:37:50;;;;;;;2.17;1.80;;;22.50;65.50;;;;;;5081665;28;20452;-72
2021/07/06 06:40:18;;;;;;;3.83;1.90;;;22.50;65.20;;;;;;5076778;28;20551;-74
2021/07/06 06:42:44;;;;;;;3.57;1.80;;;22.50;65.40;;;;;;5081771;28;20455;-73
2021/07/06 06:45:13;;;;;;;2.50;2.00;;;22.50;64.70;;;;;;5076558;28;20543;-74
2021/07/06 06:47:42;;;;;;;1.87;1.50;;;22.70;65.30;;;;;;5082877;28;20453;-75
2021/07/06 06:50:11;;;;;;;2.70;1.77;;;22.90;64.90;;;;;;5071822;28;20478;-74
2021/07/06 06:52:38;;;;;;;2.17;1.40;;;23.10;64.70;;;;;;5071482;28;21247;-77
2021/07/06 06:55:07;;;;;;;3.13;1.50;;;23.00;64.00;;;;;;5079336;28;20539;-76
2021/07/06 06:57:34;;;;;;;1.53;1.43;;;23.10;64.40;;;;;;5080283;28;20560;-79
2021/07/06 07:00:04;;;;;;;2.47;1.90;;;23.20;64.00;;;;;;5074182;28;20554;-76
2021/07/06 07:02:31;;;;;;;1.90;1.40;;;23.30;64.10;;;;;;5079598;28;20445;-76
2021/07/06 07:04:59;;;;;;;1.80;1.40;;;23.40;64.20;;;;;;5079840;28;20488;-77
2021/07/06 07:07:26;;;;;;;2.50;1.80;;;23.40;64.00;;;;;;5082338;28;20490;-77
2021/07/06 07:09:53;;;;;;;1.60;1.50;;;23.40;63.70;;;;;;5086057;28;20456;-76
2021/07/06 07:12:20;;;;;;;1.40;1.20;;;23.40;63.80;;;;;;5091656;28;20501;-75
2021/07/06 07:14:48;;;;;;;2.70;1.63;;;23.30;63.80;;;;;;5106377;28;20781;-78
2021/07/06 07:17:15;;;;;;;2.07;1.60;;;23.50;64.30;;;;;;5107040;28;20481;-78
2021/07/06 07:19:43;;;;;;;1.97;1.23;;;23.50;64.20;;;;;;5108115;28;20508;-81
2021/07/06 07:22:11;;;;;;;1.40;1.30;;;23.50;64.50;;;;;;5106273;28;20464;-79
2021/07/06 07:24:38;;;;;;;1.60;1.50;;;23.60;64.50;;;;;;5091089;28;20455;-79
2021/07/06 07:27:06;;;;;;;1.67;1.37;;;23.80;64.30;;;;;;5088488;28;20543;-78
2021/07/06 07:29:33;;;;;;;2.47;1.47;;;23.80;63.80;;;;;;5089316;28;20503;-77
2021/07/06 07:32:01;;;;;;;1.50;1.40;;;23.90;64.40;;;;;;5089103;28;20499;-78
2021/07/06 07:34:28;;;;;;;3.20;1.63;;;23.80;64.30;;;;;;5089874;28;20526;-77
2021/07/06 07:36:55;;;;;;;1.83;1.13;;;23.90;64.40;;;;;;5088367;28;20485;-78
2021/07/06 07:39:25;;;;;;;1.10;1.10;;;23.80;63.80;;;;;;5088734;28;20510;-78
2021/07/06 07:41:52;;;;;;;1.93;1.77;;;23.80;63.50;;;;;;5084563;28;20454;-78
2021/07/06 07:44:19;;;;;;;1.70;1.60;;;23.80;63.70;;;;;;5083116;28;20466;-78
2021/07/06 07:46:46;;;;;;;5.13;1.57;;;24.00;63.80;;;;;;5086757;28;20812;-79
2021/07/06 07:49:13;;;;;;;1.90;1.50;;;24.00;63.80;;;;;;5080653;28;20451;-79
2021/07/06 07:51:40;;;;;;;2.20;1.50;;;24.20;63.30;;;;;;5084831;28;20497;-82
2021/07/06 07:54:06;;;;;;;2.43;1.30;;;24.30;63.30;;;;;;5093822;28;20548;-78
2021/07/06 07:56:35;;;;;;;2.20;1.40;;;24.30;63.00;;;;;;5083682;28;20520;-75
2021/07/06 07:59:01;;;;;;;1.37;1.27;;;24.40;63.10;;;;;;5088068;28;20518;-76
2021/07/06 08:01:28;;;;;;;1.50;1.40;;;24.40;62.60;;;;;;5090105;28;20444;-76
2021/07/06 08:03:55;;;;;;;1.30;1.20;;;24.40;62.80;;;;;;5089826;28;20509;-77
2021/07/06 08:06:22;;;;;;;1.50;1.40;;;24.50;62.50;;;;;;5091775;28;20454;-77
2021/07/06 08:08:49;;;;;;;1.33;1.23;;;24.70;62.60;;;;;;5083422;28;20456;-77
2021/07/06 08:11:16;;;;;;;1.63;1.53;;;24.80;62.30;;;;;;5084358;28;20462;-77
2021/07/06 08:13:44;;;;;;;2.30;1.40;;;25.00;62.00;;;;;;5083569;28;20481;-78
2021/07/06 08:16:11;;;;;;;1.83;1.47;;;25.10;61.50;;;;;;5089196;28;21154;-77
2021/07/06 08:18:38;;;;;;;3.43;1.40;;;25.10;61.40;;;;;;5089647;28;20446;-78
2021/07/06 08:21:05;;;;;;;1.00;1.00;;;25.10;60.80;;;;;;5093498;28;20563;-78
2021/07/06 08:23:32;;;;;;;2.90;1.30;;;25.20;61.00;;;;;;5086132;28;20485;-77
2021/07/06 08:25:59;;;;;;;1.37;1.00;;;25.10;61.40;;;;;;5084892;28;20462;-77
2021/07/06 08:28:27;;;;;;;1.30;1.20;;;25.30;61.00;;;;;;5083876;28;20481;-77
2021/07/06 08:30:56;;;;;;;1.20;1.13;;;25.20;60.80;;;;;;5081976;28;20486;-78
2021/07/06 08:33:23;;;;;;;1.83;1.30;;;25.30;61.20;;;;;;5086094;28;20475;-77
2021/07/06 08:35:50;;;;;;;1.73;1.30;;;25.40;60.70;;;;;;5083354;28;20958;-77
2021/07/06 08:38:17;;;;;;;2.00;1.20;;;25.30;60.30;;;;;;5087221;28;20529;-77
2021/07/06 08:40:49;;;;;;;1.47;1.37;;;25.20;60.30;;;;;;5081932;28;20457;-77
2021/07/06 08:43:16;;;;;;;1.60;1.30;;;25.60;60.90;;;;;;5087563;28;20507;-77
2021/07/06 08:45:43;;;;;;;7.33;1.53;;;25.60;59.90;;;;;;5084277;28;20514;-77
2021/07/06 08:48:12;;;;;;;2.33;1.13;;;25.60;59.80;;;;;;5086337;28;20457;-77
2021/07/06 08:50:40;;;;;;;3.93;1.20;;;25.70;59.80;;;;;;5079470;28;20488;-77
2021/07/06 08:53:06;;;;;;;2.50;1.07;;;25.60;59.90;;;;;;5084536;28;20952;-77
2021/07/06 08:55:33;;;;;;;1.20;1.10;;;25.80;59.60;;;;;;5080120;28;20813;-77
2021/07/06 08:58:00;;;;;;;1.60;1.30;;;26.00;59.90;;;;;;5083624;28;20994;-77
2021/07/06 09:00:30;;;;;;;2.40;1.10;;;26.10;59.30;;;;;;5091610;28;20550;-81
2021/07/06 09:02:59;;;;;;;6.20;1.20;;;26.10;59.00;;;;;;5098469;28;20439;-81
2021/07/06 09:05:28;;;;;;;2.00;1.33;;;26.30;58.90;;;;;;5095248;28;20450;-82
2021/07/06 09:07:55;;;;;;;1.73;1.07;;;26.20;58.70;;;;;;5099932;28;20449;-81
2021/07/06 09:10:24;;;;;;;1.57;1.47;;;26.20;58.80;;;;;;5098802;28;20451;-80
2021/07/06 09:12:51;;;;;;;1.23;1.13;;;26.40;58.80;;;;;;5098939;28;20513;-83
2021/07/06 09:15:21;;;;;;;2.30;1.20;;;26.40;58.10;;;;;;5098592;28;20447;-83
2021/07/06 09:18:06;;;;;;;2.80;1.20;;;26.50;58.50;;;;;;5100741;28;20206;-82
2021/07/06 09:20:35;;;;;;;2.57;1.43;;;26.70;57.90;;;;;;5078099;28;20482;-83
2021/07/06 09:23:19;;;;;;;1.10;1.00;;;26.90;58.20;;;;;;5106029;28;20442;-77
2021/07/06 09:25:46;;;;;;;1.30;1.20;;;27.00;57.70;;;;;;5099263;28;20952;-78
2021/07/06 09:28:22;;;;;;;1.23;0.70;;;27.20;57.50;;;;;;5088626;28;20545;-78
2021/07/06 09:30:48;;;;;;;1.10;1.00;;;27.30;56.60;;;;;;5088733;28;20439;-78
2021/07/06 09:33:26;;;;;;;1.53;1.33;;;27.40;56.80;;;;;;5087709;28;20463;-78
2021/07/06 09:35:54;;;;;;;1.50;1.40;;;27.60;56.70;;;;;;5088954;28;20443;-77
2021/07/06 09:38:21;;;;;;;1.30;1.20;;;28.00;56.50;;;;;;5088095;28;20455;-77
2021/07/06 09:40:50;;;;;;;2.20;1.23;;;28.30;56.30;;;;;;5086840;28;20523;-77
2021/07/06 09:43:19;;;;;;;1.50;1.30;;;28.30;55.90;;;;;;5083010;28;20444;-77
2021/07/06 09:45:52;;;;;;;1.30;1.20;;;28.20;55.40;;;;;;5084521;28;20782;-77
2021/07/06 09:48:19;;;;;;;1.30;1.20;;;28.60;56.00;;;;;;5080451;28;20451;-77
2021/07/06 09:50:46;;;;;;;4.83;1.30;;;28.70;55.90;;;;;;5080344;28;20501;-74
2021/07/06 09:53:27;;;;;;;1.30;1.20;;;28.80;55.70;;;;;;5073429;28;20483;-75
2021/07/06 09:55:55;;;;;;;1.53;1.33;;;28.90;55.10;;;;;;5075232;28;20763;-75
2021/07/06 09:58:22;;;;;;;0.90;0.90;;;28.80;55.50;;;;;;5081397;28;20543;-75
2021/07/06 10:00:50;;;;;;;1.37;1.03;;;28.70;55.00;;;;;;5079498;28;21198;-76
2021/07/06 10:03:18;;;;;;;1.20;1.10;;;28.90;55.30;;;;;;5077872;28;20547;-74
2021/07/06 10:05:46;;;;;;;2.10;1.00;;;29.00;54.90;;;;;;5081751;28;20444;-76
2021/07/06 10:08:13;;;;;;;1.73;1.30;;;29.30;55.00;;;;;;5080356;28;20550;-77
2021/07/06 10:10:41;;;;;;;3.70;0.93;;;29.70;54.90;;;;;;5080091;28;20544;-77
2021/07/06 10:13:08;;;;;;;1.47;1.00;;;29.70;54.80;;;;;;5080699;28;21202;-76
2021/07/06 10:15:35;;;;;;;1.20;1.10;;;29.80;54.10;;;;;;5079405;28;20521;-77
2021/07/06 10:18:03;;;;;;;3.30;1.30;;;30.30;54.10;;;;;;5074893;28;20479;-76
2021/07/06 10:20:30;;;;;;;1.40;1.30;;;30.40;53.80;;;;;;5079458;28;20460;-77
2021/07/06 10:23:00;;;;;;;5.80;1.37;;;30.30;53.60;;;;;;5081607;28;20497;-76
2021/07/06 10:25:29;;;;;;;2.30;1.10;;;30.40;53.60;;;;;;5069861;28;20535;-76
2021/07/06 10:28:00;;;;;;;2.03;1.20;;;30.50;53.40;;;;;;5072773;28;20451;-77
2021/07/06 10:30:30;;;;;;;1.30;1.20;;;30.60;53.70;;;;;;5079731;28;20888;-76
2021/07/06 10:32:59;;;;;;;1.33;1.00;;;30.10;53.50;;;;;;5080889;28;20845;-76
2021/07/06 10:35:48;;;;;;;1.50;1.40;;;30.40;53.40;;;;;;5080408;28;20559;-75
2021/07/06 10:38:44;;;;;;;2.37;1.53;;;30.60;53.10;;;;;;5082797;28;20860;-76
2021/07/06 10:41:14;;;;;;;1.63;1.10;;;30.50;53.10;;;;;;5077684;28;20939;-75
2021/07/06 10:43:57;;;;;;;1.40;1.30;;;30.60;52.70;;;;;;5083938;28;20987;-75
2021/07/06 10:46:44;;;;;;;1.77;1.40;;;30.40;52.80;;;;;;5079003;28;20455;-75
2021/07/06 10:49:14;;;;;;;1.10;1.00;;;30.50;53.50;;;;;;5081017;28;20463;-75
2021/07/06 10:51:51;;;;;;;1.67;1.50;;;30.10;53.70;;;;;;5079142;28;20491;-75
2021/07/06 10:54:27;;;;;;;2.30;1.03;;;29.70;53.50;;;;;;5075684;28;20552;-75
2021/07/06 10:56:55;;;;;;;1.23;1.10;;;29.60;54.10;;;;;;5068775;28;20455;-76
2021/07/06 10:59:26;;;;;;;1.60;1.30;;;29.60;54.50;;;;;;5074262;28;20953;-75
2021/07/06 11:02:03;;;;;;;1.90;1.40;;;29.90;53.90;;;;;;5073643;28;20454;-75
2021/07/06 11:05:07;;;;;;;4.77;1.30;;;30.30;53.70;;;;;;5085875;28;20910;-75
2021/07/06 11:07:55;;;;;;;1.40;1.30;;;30.50;53.60;;;;;;5082842;28;20512;-75
2021/07/06 11:10:42;;;;;;;1.63;1.03;;;30.70;53.20;;;;;;5076338;28;20479;-75
2021/07/06 11:13:28;;;;;;;2.17;1.50;;;30.50;52.80;;;;;;5080918;28;20464;-76
2021/07/06 11:15:58;;;;;;;2.10;1.10;;;30.30;53.10;;;;;;5077683;28;20467;-76
2021/07/06 11:18:36;;;;;;;1.60;1.50;;;30.30;53.30;;;;;;5081401;28;20502;-77
2021/07/06 11:21:04;;;;;;;2.07;1.53;;;30.30;53.00;;;;;;5087094;28;21265;-77
2021/07/06 11:23:33;;;;;;;1.53;1.43;;;30.60;52.70;;;;;;5080846;28;20471;-78
2021/07/06 11:26:04;;;;;;;4.20;1.30;;;30.70;52.60;;;;;;5080964;28;20439;-77
2021/07/06 11:28:31;;;;;;;1.33;1.23;;;30.60;52.30;;;;;;5087127;28;20505;-77
2021/07/06 11:31:01;;;;;;;1.90;1.37;;;31.00;52.60;;;;;;5080638;28;20978;-76
2021/07/06 11:33:40;;;;;;;1.87;1.37;;;31.00;52.30;;;;;;5085643;28;20560;-76
2021/07/06 11:36:17;;;;;;;1.37;1.00;;;31.20;52.20;;;;;;5089031;28;20439;-76
2021/07/06 11:38:45;;;;;;;1.20;1.10;;;31.20;52.40;;;;;;5088448;28;20551;-76
2021/07/06 11:41:14;;;;;;;1.43;1.33;;;30.90;52.50;;;;;;5086849;28;20452;-77
2021/07/06 11:43:42;;;;;;;1.73;1.23;;;31.00;52.60;;;;;;5080585;28;20451;-77
2021/07/06 11:46:12;;;;;;;2.50;1.57;;;31.10;52.20;;;;;;5087205;28;20457;-76
2021/07/06 11:48:40;;;;;;;5.10;1.67;;;29.80;53.60;;;;;;5080205;28;20519;-77
2021/07/06 11:51:09;;;;;;;5.50;2.00;;;27.70;56.00;;;;;;5085727;28;20512;-77
2021/07/06 11:53:38;;;;;;;7.77;2.10;;;26.30;58.20;;;;;;5080422;28;20496;-76
2021/07/06 11:56:06;;;;;;;3.27;1.93;;;25.50;59.20;;;;;;5081043;28;20463;-77
2021/07/06 11:58:36;;;;;;;5.37;2.10;;;24.80;60.40;;;;;;5082493;28;20453;-77
2021/07/06 12:01:06;;;;;;;2.27;2.10;;;24.80;61.20;;;;;;5086885;28;20529;-77
2021/07/06 12:03:36;;;;;;;6.73;2.20;;;25.10;61.30;;;;;;5079528;28;20508;-77
2021/07/06 12:06:04;;;;;;;2.63;1.70;;;25.00;60.90;;;;;;5085612;28;20452;-77
2021/07/06 12:08:32;;;;;;;3.30;2.03;;;25.00;61.00;;;;;;5086683;28;20453;-77
2021/07/06 12:11:06;;;;;;;6.20;1.70;;;25.20;61.40;;;;;;5089502;28;20526;-77
2021/07/06 12:13:34;;;;;;;6.70;1.83;;;25.20;61.40;;;;;;5105266;28;20500;-78
2021/07/06 12:16:06;;;;;;;4.03;1.80;;;25.30;60.80;;;;;;5096805;28;20982;-77
2021/07/06 12:18:35;;;;;;;1.80;1.70;;;25.20;61.10;;;;;;5085462;28;20445;-77
2021/07/06 12:21:06;;;;;;;2.30;1.50;;;25.30;60.60;;;;;;5082099;28;21290;-78
2021/07/06 12:23:33;;;;;;;1.87;1.70;;;25.40;60.40;;;;;;5080636;28;20448;-77
2021/07/06 12:26:00;;;;;;;2.40;1.80;;;25.40;60.60;;;;;;5082209;28;20451;-77
2021/07/06 12:28:28;;;;;;;4.43;1.93;;;25.40;60.60;;;;;;5082866;28;20469;-77
2021/07/06 12:31:28;;;;;;;1.83;1.60;;;25.50;60.10;;;;;;5084679;28;20876;-76
2021/07/06 12:34:06;;;;;;;2.10;1.10;;;25.50;59.70;;;;;;5083757;28;20551;-77
2021/07/06 12:36:36;;;;;;;4.20;1.50;;;25.50;59.60;;;;;;5091514;28;20463;-78
2021/07/06 12:39:11;;;;;;;1.20;1.20;;;25.60;59.70;;;;;;5088621;28;20853;-78
2021/07/06 12:41:41;;;;;;;2.63;1.40;;;25.50;59.20;;;;;;5096305;28;20469;-79
2021/07/06 12:44:09;;;;;;;3.90;1.30;;;25.70;59.50;;;;;;5089904;28;20490;-78
2021/07/06 12:46:36;;;;;;;2.50;1.20;;;25.90;59.70;;;;;;5090275;28;20451;-78
2021/07/06 12:49:04;;;;;;;2.00;1.00;;;25.90;58.60;;;;;;5090546;28;20551;-78
2021/07/06 12:51:31;;;;;;;3.53;1.00;;;25.90;58.80;;;;;;5095563;28;20459;-77
2021/07/06 12:54:00;;;;;;;2.10;1.17;;;25.90;58.70;;;;;;5092057;28;20849;-77
2021/07/06 12:56:28;;;;;;;1.00;0.90;;;26.30;58.70;;;;;;5084800;28;20496;-76